createdAt,value
2024-05-09T00:02:19.160Z,22.55
2024-05-09T00:04:51.545Z,22.15
2024-05-09T00:07:21.292Z,21.70
2024-05-09T00:09:50.785Z,21.75
2024-05-09T00:12:20.567Z,21.42
2024-05-09T00:14:50.121Z,20.83
2024-05-09T00:17:19.741Z,21.88
2024-05-09T00:19:51.896Z,22.08
2024-05-09T00:22:21.475Z,21.90
2024-05-09T00:24:50.976Z,19.85
2024-05-09T00:27:20.944Z,22.13
2024-05-09T00:29:50.776Z,23.02
2024-05-09T00:32:20.380Z,23.08
2024-05-09T00:34:52.792Z,22.92
2024-05-09T00:37:22.543Z,22.77
2024-05-09T00:39:52.009Z,23.20
2024-05-09T00:42:21.544Z,22.58
2024-05-09T00:44:51.391Z,23.80
2024-05-09T00:47:21.228Z,23.88
2024-05-09T00:49:53.687Z,22.60
2024-05-09T00:52:25.020Z,23.27
2024-05-09T00:54:54.617Z,23.70
2024-05-09T00:57:24.459Z,23.02
2024-05-09T00:59:57.879Z,25.00
2024-05-09T01:02:28.853Z,24.30
2024-05-09T01:05:01.177Z,22.50
2024-05-09T01:07:31.550Z,22.58
2024-05-09T01:10:00.960Z,23.98
2024-05-09T01:12:30.580Z,23.08
2024-05-09T01:15:00.638Z,23.73
2024-05-09T01:17:30.539Z,22.75
2024-05-09T01:20:04.229Z,23.83
2024-05-09T01:22:38.514Z,24.50
2024-05-09T01:25:10.846Z,24.65
2024-05-09T01:27:40.491Z,23.13
2024-05-09T01:30:17.269Z,23.45
2024-05-09T01:32:51.251Z,23.08
2024-05-09T01:35:23.708Z,23.25
2024-05-09T01:37:53.617Z,23.58
2024-05-09T01:40:36.067Z,23.30
2024-05-09T01:43:09.789Z,23.92
2024-05-09T01:45:41.025Z,24.27
2024-05-09T01:48:11.859Z,23.70
2024-05-09T01:50:43.089Z,25.60
2024-05-09T01:53:15.025Z,24.58
2024-05-09T01:55:47.603Z,24.52
2024-05-09T01:58:17.124Z,23.65
2024-05-09T02:00:46.856Z,23.98
2024-05-09T02:03:17.915Z,23.38
2024-05-09T02:05:49.874Z,21.65
2024-05-09T02:08:21.253Z,21.75
2024-05-09T02:10:53.924Z,20.85
2024-05-09T02:13:23.725Z,18.58
2024-05-09T02:15:53.844Z,18.92
2024-05-09T02:18:23.755Z,18.70
2024-05-09T02:20:53.309Z,18.02
2024-05-09T02:23:22.829Z,20.45
2024-05-09T02:25:54.957Z,19.40
2024-05-09T02:28:24.391Z,21.13
2024-05-09T02:30:54.425Z,19.20
2024-05-09T02:33:24.224Z,19.80
2024-05-09T02:35:53.832Z,20.48
2024-05-09T02:38:23.544Z,20.05
2024-05-09T02:40:53.243Z,21.20
2024-05-09T02:43:22.722Z,21.48
2024-05-09T02:45:49.590Z,21.25
2024-05-09T02:48:19.293Z,21.42
2024-05-09T02:50:46.376Z,22.08
2024-05-09T02:53:16.535Z,21.50
2024-05-09T02:55:43.616Z,19.20
2024-05-09T02:58:16.143Z,19.52
2024-05-09T03:00:43.384Z,17.58
2024-05-09T03:03:15.330Z,18.10
2024-05-09T03:05:43.277Z,18.35
2024-05-09T03:08:13.269Z,16.95
2024-05-09T03:10:40.322Z,15.75
2024-05-09T03:13:11.680Z,16.50
2024-05-09T03:15:41.412Z,16.25
2024-05-09T03:18:12.163Z,17.52
2024-05-09T03:20:39.990Z,17.08
2024-05-09T03:23:10.744Z,17.77
2024-05-09T03:25:37.718Z,17.73
2024-05-09T03:28:07.895Z,19.17
2024-05-09T03:30:41.180Z,18.95
2024-05-09T03:33:18.673Z,18.50
2024-05-09T03:35:47.785Z,18.60
2024-05-09T03:38:17.728Z,19.33
2024-05-09T03:40:48.185Z,17.38
2024-05-09T03:43:18.817Z,16.67
2024-05-09T03:45:49.407Z,17.35
2024-05-09T03:48:19.148Z,17.17
2024-05-09T03:50:48.918Z,16.90
2024-05-09T03:53:16.348Z,15.25
2024-05-09T03:55:46.013Z,16.37
2024-05-09T03:58:14.373Z,14.77
2024-05-09T04:00:44.656Z,14.63
2024-05-09T04:03:13.064Z,14.77
2024-05-09T04:05:46.090Z,13.10
2024-05-09T04:08:14.018Z,14.15
2024-05-09T04:10:44.269Z,12.80
2024-05-09T04:13:11.279Z,12.85
2024-05-09T04:15:41.078Z,13.13
2024-05-09T04:18:08.136Z,14.02
2024-05-09T04:20:40.361Z,13.55
2024-05-09T04:23:12.106Z,14.85
2024-05-09T04:25:44.214Z,15.90
2024-05-09T04:28:11.451Z,14.27
2024-05-09T04:30:42.127Z,14.27
2024-05-09T04:33:12.150Z,15.17
2024-05-09T04:35:44.967Z,15.53
2024-05-09T04:38:15.645Z,15.68
2024-05-09T04:40:45.877Z,14.27
2024-05-09T04:43:17.193Z,14.83
2024-05-09T04:45:47.140Z,14.45
2024-05-09T04:48:14.257Z,14.07
2024-05-09T04:50:44.279Z,13.05
2024-05-09T04:53:18.147Z,11.60
2024-05-09T04:55:47.900Z,10.57
2024-05-09T04:58:14.951Z,9.27
2024-05-09T05:00:44.510Z,11.50
2024-05-09T05:03:14.561Z,11.02
2024-05-09T05:05:46.526Z,11.00
2024-05-09T05:08:14.811Z,10.70
2024-05-09T05:10:48.539Z,10.63
2024-05-09T05:13:18.110Z,10.43
2024-05-09T05:15:48.666Z,10.73
2024-05-09T05:18:16.433Z,10.13
2024-05-09T05:20:46.868Z,10.55
2024-05-09T05:23:15.610Z,11.02
2024-05-09T05:25:49.054Z,9.27
2024-05-09T05:28:16.814Z,10.20
2024-05-09T05:30:46.910Z,10.43
2024-05-09T05:33:15.573Z,9.57
2024-05-09T05:35:45.513Z,9.07
2024-05-09T05:38:15.640Z,8.60
2024-05-09T05:40:45.235Z,9.70
2024-05-09T05:43:20.583Z,10.23
2024-05-09T05:45:50.185Z,12.52
2024-05-09T05:48:17.834Z,18.35
2024-05-09T05:50:47.921Z,17.35
2024-05-09T05:53:14.896Z,12.93
2024-05-09T05:55:44.734Z,19.13
2024-05-09T05:58:14.920Z,16.48
2024-05-09T06:00:44.742Z,21.85
2024-05-09T06:03:12.910Z,22.17
2024-05-09T06:05:43.669Z,23.25
2024-05-09T06:08:11.290Z,25.20
2024-05-09T06:10:41.718Z,32.03
2024-05-09T06:13:11.769Z,30.85
2024-05-09T06:15:44.717Z,29.15
2024-05-09T06:18:12.764Z,32.20
2024-05-09T06:20:43.966Z,31.15
2024-05-09T06:23:12.854Z,29.40
2024-05-09T06:25:43.930Z,26.98
2024-05-09T06:28:11.154Z,29.35
2024-05-09T06:30:42.534Z,29.35
2024-05-09T06:33:14.936Z,29.88
2024-05-09T06:35:46.079Z,28.35
2024-05-09T06:38:13.244Z,29.00
2024-05-09T06:40:44.301Z,28.90
2024-05-09T06:43:12.337Z,30.63
2024-05-09T06:45:42.007Z,30.40
2024-05-09T06:48:10.132Z,34.70
2024-05-09T06:50:43.570Z,30.17
2024-05-09T06:53:10.970Z,28.15
2024-05-09T06:55:40.456Z,26.13
2024-05-09T06:58:09.113Z,25.58
2024-05-09T07:00:41.080Z,24.27
2024-05-09T07:03:09.445Z,23.35
2024-05-09T07:05:42.106Z,23.17
2024-05-09T07:08:09.499Z,23.27
2024-05-09T07:10:39.174Z,23.02
2024-05-09T07:13:09.114Z,23.90
2024-05-09T07:15:38.583Z,22.75
2024-05-09T07:18:11.019Z,22.42
2024-05-09T07:20:44.366Z,23.27
2024-05-09T07:23:12.694Z,23.08
2024-05-09T07:25:43.400Z,21.63
2024-05-09T07:28:10.958Z,22.35
2024-05-09T07:30:40.440Z,24.08
2024-05-09T07:33:07.497Z,22.75
2024-05-09T07:35:37.514Z,22.65
2024-05-09T07:38:07.314Z,22.73
2024-05-09T07:40:37.250Z,20.92
2024-05-09T07:43:04.963Z,20.77
2024-05-09T07:52:32.501Z,22.73
2024-05-09T07:53:40.053Z,22.10
2024-05-09T07:56:12.163Z,21.27
2024-05-09T07:58:42.133Z,20.65
2024-05-09T08:01:09.598Z,18.77
2024-05-09T08:03:40.332Z,19.58
2024-05-09T08:06:07.367Z,17.58
2024-05-09T08:08:39.552Z,20.70
2024-05-09T08:11:06.721Z,17.55
2024-05-09T08:13:36.353Z,17.83
2024-05-09T08:16:03.272Z,16.92
2024-05-09T08:18:33.152Z,17.90
2024-05-09T08:21:00.216Z,18.50
2024-05-09T08:23:29.736Z,18.67
2024-05-09T08:26:01.789Z,17.15
2024-05-09T08:28:28.760Z,17.27
2024-05-09T08:30:58.338Z,17.52
2024-05-09T08:33:25.298Z,16.88
2024-05-09T08:35:54.903Z,17.38
2024-05-09T08:38:21.736Z,17.48
2024-05-09T08:40:51.583Z,17.33
2024-05-09T08:43:24.521Z,17.27
2024-05-09T08:45:54.208Z,16.73
2024-05-09T08:48:24.135Z,17.70
2024-05-09T08:50:55.455Z,17.38
2024-05-09T08:53:22.777Z,17.90
2024-05-09T08:55:53.788Z,18.48
2024-05-09T08:58:24.272Z,17.25
2024-05-09T09:00:54.047Z,18.80
2024-05-09T09:03:26.880Z,18.42
2024-05-09T09:06:02.392Z,18.02
2024-05-09T09:08:29.411Z,17.23
2024-05-09T09:11:01.492Z,17.67
2024-05-09T09:13:31.221Z,21.75
2024-05-09T09:16:02.792Z,22.67
2024-05-09T09:18:30.404Z,24.45
2024-05-09T09:21:01.132Z,24.38
2024-05-09T09:23:29.555Z,23.98
2024-05-09T09:26:01.394Z,24.58
2024-05-09T09:28:31.166Z,24.63
2024-05-09T09:31:05.005Z,24.40
2024-05-09T09:33:32.876Z,23.15
2024-05-09T09:36:03.369Z,24.50
2024-05-09T09:38:31.618Z,24.05
2024-05-09T09:41:04.107Z,22.67
2024-05-09T09:43:34.163Z,25.00
2024-05-09T09:46:04.989Z,24.38
2024-05-09T09:48:32.579Z,22.63
2024-05-09T09:51:03.003Z,24.85
2024-05-09T09:53:31.962Z,23.50
2024-05-09T09:56:03.337Z,21.85
2024-05-09T09:58:34.904Z,21.58
2024-05-09T10:01:04.599Z,21.70
2024-05-09T10:03:32.632Z,22.13
2024-05-09T10:06:02.916Z,20.20
2024-05-09T10:08:30.540Z,22.13
2024-05-09T10:11:00.787Z,21.67
2024-05-09T10:13:35.644Z,20.80
2024-05-09T10:16:12.061Z,21.17
2024-05-09T10:18:40.774Z,20.48
2024-05-09T10:21:20.371Z,22.15
2024-05-09T10:23:58.092Z,21.45
2024-05-09T10:26:37.326Z,21.73
2024-05-09T10:29:17.703Z,21.25
2024-05-09T10:31:48.740Z,21.90
2024-05-09T10:34:19.380Z,22.35
2024-05-09T10:36:49.464Z,21.63
2024-05-09T10:39:19.032Z,19.95
2024-05-09T10:41:48.525Z,22.15
2024-05-09T10:44:18.703Z,20.23
2024-05-09T10:46:50.313Z,19.95
2024-05-09T10:49:17.480Z,21.38
2024-05-09T10:51:48.422Z,21.45
2024-05-09T10:54:15.617Z,20.73
2024-05-09T10:56:45.167Z,20.48
2024-05-09T10:59:13.035Z,20.63
2024-05-09T11:01:45.562Z,19.92
2024-05-09T11:04:13.991Z,20.27
2024-05-09T11:06:44.211Z,19.42
2024-05-09T11:09:11.654Z,18.05
2024-05-09T11:11:41.472Z,16.95
2024-05-09T11:14:12.189Z,15.98
2024-05-09T11:16:41.643Z,18.02
2024-05-09T11:19:15.041Z,15.68
2024-05-09T11:21:45.027Z,14.55
2024-05-09T11:24:12.181Z,13.70
2024-05-09T11:26:41.831Z,15.27
2024-05-09T11:29:08.788Z,16.17
2024-05-09T11:31:48.311Z,16.58
2024-05-09T11:34:18.117Z,16.55
2024-05-09T11:36:47.752Z,15.75
2024-05-09T11:39:14.975Z,16.10
2024-05-09T11:41:44.545Z,15.27
2024-05-09T11:44:11.544Z,15.60
2024-05-09T11:46:41.089Z,14.93
2024-05-09T11:49:09.310Z,15.27
2024-05-09T11:51:41.752Z,15.13
2024-05-09T11:54:08.767Z,14.90
2024-05-09T11:56:38.453Z,16.25
2024-05-09T11:59:05.486Z,16.02
2024-05-09T12:01:35.328Z,14.50
2024-05-09T12:04:05.212Z,12.98
2024-05-09T12:06:35.344Z,14.50
2024-05-09T12:09:05.058Z,13.25
2024-05-09T12:11:34.638Z,12.65
2024-05-09T12:14:01.486Z,12.15
2024-05-09T12:16:31.235Z,11.90
2024-05-09T12:18:58.608Z,10.93
2024-05-09T12:21:28.349Z,11.98
2024-05-09T12:23:55.344Z,10.88
2024-05-09T12:26:28.658Z,10.95
2024-05-09T12:28:55.520Z,10.88
2024-05-09T12:31:26.552Z,11.15
2024-05-09T12:33:54.862Z,9.73
2024-05-09T12:36:26.421Z,9.52
2024-05-09T12:38:53.436Z,9.80
2024-05-09T12:41:24.028Z,9.55
2024-05-09T12:43:54.269Z,9.30
2024-05-09T12:46:24.877Z,9.63
2024-05-09T12:48:54.038Z,9.50
2024-05-09T12:51:24.814Z,12.27
2024-05-09T12:53:52.725Z,11.68
2024-05-09T12:56:24.948Z,10.90
2024-05-09T12:58:54.475Z,11.45
2024-05-09T13:01:24.169Z,12.25
2024-05-09T13:03:51.674Z,13.93
2024-05-09T13:06:21.685Z,14.00
2024-05-09T13:08:52.179Z,14.98
2024-05-09T13:11:22.086Z,15.13
2024-05-09T13:13:49.395Z,17.95
2024-05-09T13:16:21.694Z,18.67
2024-05-09T13:18:48.690Z,18.25
2024-05-09T13:21:18.252Z,18.77
2024-05-09T13:23:45.612Z,18.48
2024-05-09T13:26:15.268Z,17.77
2024-05-09T13:28:42.282Z,19.73
2024-05-09T13:31:11.838Z,19.83
2024-05-09T13:33:41.696Z,21.13
2024-05-09T13:36:11.329Z,20.05
2024-05-09T13:38:38.245Z,19.63
2024-05-09T13:41:08.540Z,19.25
2024-05-09T13:43:35.425Z,18.15
2024-05-09T13:46:05.115Z,18.88
2024-05-09T13:48:32.175Z,19.30
2024-05-09T13:51:04.477Z,19.50
2024-05-09T13:53:31.347Z,18.48
2024-05-09T13:56:01.184Z,17.33
2024-05-09T13:58:28.143Z,17.27
2024-05-09T14:00:58.326Z,18.60
2024-05-09T14:03:29.763Z,19.38
2024-05-09T14:05:59.536Z,18.13
2024-05-09T14:08:29.346Z,19.98
2024-05-09T14:10:58.905Z,20.80
2024-05-09T15:21:02.863Z,26.73
2024-05-09T15:23:29.816Z,26.25
2024-05-09T15:25:59.353Z,29.45
2024-05-09T15:28:26.324Z,27.25
2024-05-09T15:30:56.019Z,25.45
2024-05-09T15:33:23.747Z,25.73
2024-05-09T15:35:53.808Z,24.63
2024-05-09T15:38:26.157Z,20.67
2024-05-09T15:40:59.300Z,21.38
2024-05-09T15:43:28.076Z,22.08
2024-05-09T15:46:00.219Z,20.35
2024-05-09T15:48:27.308Z,17.90
2024-05-09T15:50:56.922Z,47.53
2024-05-09T15:53:26.696Z,24.27
2024-05-09T15:55:56.687Z,17.85
2024-05-09T15:58:27.137Z,18.42
2024-05-09T16:00:57.072Z,17.17
2024-05-09T16:03:28.313Z,18.20
2024-05-09T16:05:58.820Z,19.00
2024-05-09T16:08:28.374Z,16.85
2024-05-09T16:10:58.355Z,14.55
2024-05-09T16:13:25.379Z,16.23
2024-05-09T16:15:55.229Z,13.05
2024-05-09T16:18:23.785Z,12.70
2024-05-09T16:20:59.563Z,16.48
2024-05-09T16:23:29.327Z,14.27
2024-05-09T16:25:59.676Z,16.30
2024-05-09T16:28:27.222Z,14.98
2024-05-09T16:30:58.086Z,13.50
2024-05-09T16:33:26.133Z,15.68
2024-05-09T16:35:58.114Z,13.35
2024-05-09T16:38:25.546Z,16.15
2024-05-09T16:40:57.982Z,13.70
2024-05-09T16:43:25.078Z,13.70
2024-05-09T16:45:57.956Z,15.65
2024-05-09T16:48:24.927Z,14.10
2024-05-09T16:50:54.410Z,14.30
2024-05-09T16:53:21.417Z,14.48
2024-05-09T16:55:50.977Z,14.77
2024-05-09T16:58:20.875Z,12.32
2024-05-09T17:00:50.761Z,13.30
2024-05-09T17:03:18.238Z,15.75
2024-05-09T17:05:48.512Z,14.18
2024-05-09T17:08:17.814Z,13.52
2024-05-09T17:10:48.951Z,13.07
2024-05-09T17:13:19.845Z,14.25
2024-05-09T17:15:52.635Z,14.20
2024-05-09T17:18:22.824Z,11.20
2024-05-09T17:20:52.601Z,14.45
2024-05-09T17:23:22.622Z,10.93
2024-05-09T17:25:49.544Z,11.15
2024-05-09T17:28:19.788Z,9.48
2024-05-09T17:30:49.672Z,10.20
2024-05-09T17:33:21.900Z,10.70
2024-05-09T17:35:52.930Z,10.32
2024-05-09T17:38:22.845Z,12.18
2024-05-09T17:40:53.237Z,11.93
2024-05-09T17:43:20.254Z,11.27
2024-05-09T17:45:52.656Z,12.55
2024-05-09T17:48:19.998Z,12.70
2024-05-09T17:50:53.680Z,12.30
2024-05-09T17:53:20.626Z,14.48
2024-05-09T17:55:53.914Z,13.18
2024-05-09T17:58:21.058Z,12.82
2024-05-09T18:00:53.631Z,11.77
2024-05-09T18:03:22.857Z,12.90
2024-05-09T18:05:52.881Z,13.10
2024-05-09T18:08:19.794Z,15.20
2024-05-09T18:10:50.667Z,14.80
2024-05-09T18:13:18.935Z,15.70
2024-05-09T18:15:48.436Z,14.10
2024-05-09T18:18:18.199Z,15.43
2024-05-09T18:20:47.837Z,14.77
2024-05-09T18:23:18.521Z,14.50
2024-05-09T18:25:49.121Z,14.82
2024-05-09T18:28:16.914Z,14.55
2024-05-09T18:30:47.004Z,15.95
2024-05-09T18:33:14.275Z,16.27
2024-05-09T18:35:47.002Z,16.92
2024-05-09T18:38:14.005Z,15.23
2024-05-09T18:40:46.090Z,17.70
2024-05-09T18:43:15.223Z,15.52
2024-05-09T18:45:44.780Z,16.75
2024-05-09T18:48:12.311Z,17.42
2024-05-09T18:50:42.126Z,16.13
2024-05-09T18:53:12.913Z,17.88
2024-05-09T18:55:43.590Z,17.88
2024-05-09T18:58:10.728Z,17.40
2024-05-09T19:00:42.984Z,17.90
2024-05-09T19:03:14.055Z,19.73
2024-05-09T19:05:45.884Z,22.60
2024-05-09T19:08:16.119Z,20.38
2024-05-09T19:10:46.240Z,21.33
2024-05-09T19:13:14.448Z,22.27
2024-05-09T19:15:44.900Z,23.60
2024-05-09T19:18:12.906Z,22.77
2024-05-09T19:20:43.084Z,22.90
2024-05-09T19:23:11.549Z,24.10
2024-05-09T19:25:43.893Z,24.75
2024-05-09T19:28:10.880Z,25.80
2024-05-09T19:30:42.376Z,24.70
2024-05-09T19:33:11.434Z,25.20
2024-05-09T19:35:42.199Z,24.55
2024-05-09T19:38:09.145Z,26.02
2024-05-09T19:40:38.772Z,26.05
2024-05-09T19:43:08.576Z,25.83
2024-05-09T19:45:38.455Z,26.92
2024-05-09T19:48:06.771Z,26.98
2024-05-09T19:50:41.923Z,27.98
2024-05-09T19:53:11.772Z,27.50
2024-05-09T19:55:41.791Z,28.05
2024-05-09T19:58:12.248Z,27.52
2024-05-09T20:00:43.943Z,27.40
2024-05-09T20:03:13.080Z,27.42
2024-05-09T20:05:44.583Z,28.77
2024-05-09T20:08:11.989Z,27.88
2024-05-09T20:10:41.595Z,29.10
2024-05-09T20:13:11.202Z,28.67
2024-05-09T20:15:40.737Z,28.77
2024-05-09T20:18:07.849Z,29.83
2024-05-09T20:20:41.660Z,29.45
2024-05-09T20:23:11.004Z,27.52
2024-05-09T20:25:40.612Z,28.77
2024-05-09T20:28:10.779Z,28.45
2024-05-09T20:30:40.623Z,29.70
2024-05-09T20:33:08.973Z,29.23
2024-05-09T20:35:39.382Z,30.75
2024-05-09T20:38:06.289Z,29.90
2024-05-09T20:40:38.854Z,29.85
2024-05-09T20:43:07.699Z,29.67
2024-05-09T20:45:40.751Z,30.27
2024-05-09T20:48:09.085Z,31.85
2024-05-09T20:50:41.559Z,29.70
2024-05-09T20:53:10.832Z,29.25
2024-05-09T20:55:40.719Z,29.27
2024-05-09T20:58:08.867Z,30.85
2024-05-09T21:00:44.428Z,30.67
2024-05-09T21:03:13.998Z,28.88
2024-05-09T21:05:44.710Z,29.92
2024-05-09T21:08:11.837Z,30.08
2024-05-09T21:10:41.371Z,29.88
2024-05-09T21:13:08.394Z,29.80
2024-05-09T21:15:38.167Z,30.52
2024-05-09T21:18:08.521Z,31.02
2024-05-09T21:20:38.075Z,33.00
2024-05-09T21:23:05.471Z,33.83
2024-05-09T21:25:35.010Z,32.17
2024-05-09T21:28:02.155Z,31.55
2024-05-09T21:30:40.375Z,30.83
2024-05-09T21:33:14.223Z,30.98
2024-05-09T21:35:45.377Z,31.35
2024-05-09T21:38:14.197Z,31.10
2024-05-09T21:40:45.242Z,30.67
2024-05-09T21:43:12.523Z,29.13
2024-05-09T21:45:42.339Z,30.45
2024-05-09T21:48:12.866Z,29.13
2024-05-09T21:50:42.829Z,30.88
2024-05-09T21:53:10.312Z,31.02
2024-05-09T21:55:39.952Z,31.38
2024-05-09T21:58:06.987Z,31.98
2024-05-09T22:00:39.409Z,31.80
2024-05-09T22:03:08.217Z,30.08
2024-05-09T22:05:44.271Z,30.95
2024-05-09T22:08:11.703Z,31.30
2024-05-09T22:10:41.425Z,31.00
2024-05-09T22:13:09.001Z,32.72
2024-05-09T22:15:40.467Z,31.88
2024-05-09T22:18:09.720Z,31.20
2024-05-09T22:20:44.976Z,29.60
2024-05-09T22:23:13.380Z,28.75
2024-05-09T22:25:43.111Z,28.48
2024-05-09T22:28:10.113Z,29.25
2024-05-09T22:30:40.540Z,28.55
2024-05-09T22:33:09.112Z,28.27
2024-05-09T22:35:43.037Z,26.88
2024-05-09T22:38:09.984Z,27.88
2024-05-09T22:40:47.283Z,26.25
2024-05-09T22:43:18.418Z,26.45
2024-05-09T22:45:49.263Z,27.88
2024-05-09T22:48:16.405Z,28.33
2024-05-09T22:50:48.704Z,29.80
2024-05-09T22:53:15.695Z,30.08
2024-05-09T22:55:45.243Z,30.27
2024-05-09T22:58:12.264Z,32.80
2024-05-09T23:00:41.969Z,32.40
2024-05-09T23:03:08.911Z,33.72
2024-05-09T23:05:38.647Z,35.45
2024-05-09T23:08:08.751Z,32.92
2024-05-09T23:10:38.688Z,32.08
2024-05-09T23:13:06.200Z,31.63
2024-05-09T23:15:36.052Z,30.52
2024-05-09T23:18:03.037Z,30.25
2024-05-09T23:20:37.596Z,29.90
2024-05-09T23:23:10.863Z,29.92
2024-05-09T23:25:41.991Z,28.70
2024-05-09T23:28:09.372Z,28.52
2024-05-09T23:30:40.903Z,29.38
2024-05-09T23:33:10.449Z,28.50
2024-05-09T23:35:40.369Z,28.90
2024-05-09T23:38:09.862Z,28.05
2024-05-09T23:40:41.222Z,29.10
2024-05-09T23:43:09.907Z,28.42
2024-05-09T23:45:40.070Z,28.38
2024-05-09T23:48:08.057Z,28.30
2024-05-09T23:50:39.529Z,26.55
2024-05-09T23:53:10.905Z,29.30
2024-05-09T23:55:40.829Z,28.92
2024-05-09T23:58:07.920Z,29.65
